aviador You're here:

KTDR Decoded Metar

in
Report Time2017-03-28 05:56:00
UTC Time2017-03-28 06:08:42
Flight Rules lifr LIFR
Wind190° at 05 kt
W.Rank190° ranks 15
Current wind is below 190° avg. (7.9)
Visibility9999 m
Phenomena:N/A
Clouds:Broken 003 Hf
Ceiling300 ft
Temp20°C
Dew Point20°C (100% RH)
QNH1016 hPa
Raw Report
KTDR 280556Z AUTO 19005KT 7SM BKN003 20/20 A3001 RMK AO2 SLP166
T01990202 10205 20193 402580164 56009 $=

Extra information for KTDR:More info

Social comments